sensor_id;sensor_type;location;lat;lon;timestamp;pressure;altitude;pressure_sealevel;temperature;humidity
68508;BME280;55510;49.560;19.090;2023-06-10T00:00:58;96124.09;;;13.54;100.00
68508;BME280;55510;49.560;19.090;2023-06-10T00:04:20;96119.56;;;13.55;100.00
68508;BME280;55510;49.560;19.090;2023-06-10T00:07:20;96123.81;;;13.56;100.00
68508;BME280;55510;49.560;19.090;2023-06-10T00:10:22;96121.16;;;13.56;100.00
68508;BME280;55510;49.560;19.090;2023-06-10T00:13:22;96130.25;;;13.55;100.00
68508;BME280;55510;49.560;19.090;2023-06-10T00:16:23;96130.78;;;13.57;100.00
68508;BME280;55510;49.560;19.090;2023-06-10T00:19:24;96135.59;;;13.60;100.00
68508;BME280;55510;49.560;19.090;2023-06-10T00:22:30;96134.50;;;13.61;100.00
68508;BME280;55510;49.560;19.090;2023-06-10T00:25:32;96132.38;;;13.63;100.00
68508;BME280;55510;49.560;19.090;2023-06-10T00:28:33;96129.16;;;13.61;100.00
68508;BME280;55510;49.560;19.090;2023-06-10T00:31:35;96139.31;;;13.59;100.00
68508;BME280;55510;49.560;19.090;2023-06-10T00:34:36;96135.88;;;13.58;100.00
68508;BME280;55510;49.560;19.090;2023-06-10T00:37:37;96143.59;;;13.60;100.00
68508;BME280;55510;49.560;19.090;2023-06-10T00:40:39;96142.53;;;13.56;100.00
68508;BME280;55510;49.560;19.090;2023-06-10T00:43:41;96144.16;;;13.57;100.00
68508;BME280;55510;49.560;19.090;2023-06-10T00:46:42;96141.47;;;13.57;100.00
68508;BME280;55510;49.560;19.090;2023-06-10T00:49:44;96139.88;;;13.56;100.00
68508;BME280;55510;49.560;19.090;2023-06-10T00:52:45;96145.50;;;13.54;100.00
68508;BME280;55510;49.560;19.090;2023-06-10T00:55:48;96147.91;;;13.51;100.00
68508;BME280;55510;49.560;19.090;2023-06-10T00:58:50;96142.53;;;13.51;100.00
68508;BME280;55510;49.560;19.090;2023-06-10T01:01:51;96145.75;;;13.53;100.00
68508;BME280;55510;49.560;19.090;2023-06-10T01:04:52;96142.00;;;13.54;100.00
68508;BME280;55510;49.560;19.090;2023-06-10T01:11:21;96140.94;;;13.55;100.00
68508;BME280;55510;49.560;19.090;2023-06-10T01:14:24;96142.53;;;13.51;100.00
68508;BME280;55510;49.560;19.090;2023-06-10T01:17:26;96147.91;;;13.51;100.00
68508;BME280;55510;49.560;19.090;2023-06-10T01:20:28;96155.38;;;13.48;100.00
68508;BME280;55510;49.560;19.090;2023-06-10T01:23:30;96140.16;;;13.49;100.00
68508;BME280;55510;49.560;19.090;2023-06-10T01:26:32;96146.28;;;13.49;100.00
68508;BME280;55510;49.560;19.090;2023-06-10T01:29:42;96146.81;;;13.52;100.00
68508;BME280;55510;49.560;19.090;2023-06-10T01:32:49;96146.81;;;13.52;100.00
68508;BME280;55510;49.560;19.090;2023-06-10T01:35:51;96147.63;;;13.52;100.00
68508;BME280;55510;49.560;19.090;2023-06-10T01:38:53;96147.91;;;13.51;100.00
68508;BME280;55510;49.560;19.090;2023-06-10T01:41:55;96147.34;;;13.54;100.00
68508;BME280;55510;49.560;19.090;2023-06-10T01:44:56;96148.72;;;13.51;100.00
68508;BME280;55510;49.560;19.090;2023-06-10T01:47:57;96156.97;;;13.55;100.00
68508;BME280;55510;49.560;19.090;2023-06-10T01:50:58;96156.72;;;13.56;100.00
68508;BME280;55510;49.560;19.090;2023-06-10T01:53:59;96157.50;;;13.52;100.00
68508;BME280;55510;49.560;19.090;2023-06-10T01:57:01;96159.41;;;13.51;100.00
68508;BME280;55510;49.560;19.090;2023-06-10T02:00:02;96154.06;;;13.51;100.00
68508;BME280;55510;49.560;19.090;2023-06-10T02:03:03;96164.22;;;13.54;100.00
68508;BME280;55510;49.560;19.090;2023-06-10T02:06:04;96157.50;;;13.52;100.00
68508;BME280;55510;49.560;19.090;2023-06-10T02:09:05;96160.19;;;13.52;100.00
68508;BME280;55510;49.560;19.090;2023-06-10T02:12:06;96164.75;;;13.51;100.00
68508;BME280;55510;49.560;19.090;2023-06-10T02:15:07;96172.50;;;13.47;100.00
68508;BME280;55510;49.560;19.090;2023-06-10T02:18:07;96168.75;;;13.48;100.00
68508;BME280;55510;49.560;19.090;2023-06-10T02:21:08;96162.03;;;13.46;100.00
68508;BME280;55510;49.560;19.090;2023-06-10T02:24:09;96175.41;;;13.46;100.00
68508;BME280;55510;49.560;19.090;2023-06-10T02:27:09;96168.22;;;13.46;100.00
68508;BME280;55510;49.560;19.090;2023-06-10T02:30:11;96168.75;;;13.48;100.00
68508;BME280;55510;49.560;19.090;2023-06-10T02:33:11;96168.75;;;13.48;100.00
68508;BME280;55510;49.560;19.090;2023-06-10T02:36:12;96169.81;;;13.47;100.00
68508;BME280;55510;49.560;19.090;2023-06-10T02:39:13;96166.59;;;13.45;100.00
68508;BME280;55510;49.560;19.090;2023-06-10T02:42:14;96171.41;;;13.48;100.00
68508;BME280;55510;49.560;19.090;2023-06-10T02:45:15;96167.69;;;13.49;100.00
68508;BME280;55510;49.560;19.090;2023-06-10T02:48:15;96173.56;;;13.52;100.00
68508;BME280;55510;49.560;19.090;2023-06-10T02:51:16;96178.13;;;13.51;100.00
68508;BME280;55510;49.560;19.090;2023-06-10T02:54:17;96182.09;;;13.48;100.00
68508;BME280;55510;49.560;19.090;2023-06-10T02:57:17;96176.75;;;13.48;100.00
68508;BME280;55510;49.560;19.090;2023-06-10T03:00:18;96177.59;;;13.49;100.00
68508;BME280;55510;49.560;19.090;2023-06-10T03:03:23;96185.31;;;13.45;100.00
68508;BME280;55510;49.560;19.090;2023-06-10T03:06:24;96192.81;;;13.48;100.00
68508;BME280;55510;49.560;19.090;2023-06-10T03:09:25;96182.66;;;13.51;100.00
68508;BME280;55510;49.560;19.090;2023-06-10T03:12:26;96183.72;;;13.49;100.00
68508;BME280;55510;49.560;19.090;2023-06-10T03:15:26;96183.19;;;13.53;100.00
68508;BME280;55510;49.560;19.090;2023-06-10T03:18:29;96186.38;;;13.55;100.00
68508;BME280;55510;49.560;19.090;2023-06-10T03:21:29;96185.06;;;13.57;100.00
68508;BME280;55510;49.560;19.090;2023-06-10T03:24:30;96179.97;;;13.61;100.00
68508;BME280;55510;49.560;19.090;2023-06-10T03:27:31;96184.78;;;13.64;100.00
68508;BME280;55510;49.560;19.090;2023-06-10T03:30:33;96177.28;;;13.66;100.00
68508;BME280;55510;49.560;19.090;2023-06-10T03:33:33;96179.72;;;13.68;100.00
68508;BME280;55510;49.560;19.090;2023-06-10T03:36:34;96181.06;;;13.70;100.00
68508;BME280;55510;49.560;19.090;2023-06-10T03:39:37;96179.69;;;13.73;100.00
68508;BME280;55510;49.560;19.090;2023-06-10T03:42:38;96188.25;;;13.70;100.00
68508;BME280;55510;49.560;19.090;2023-06-10T03:45:38;96190.41;;;13.68;100.00
68508;BME280;55510;49.560;19.090;2023-06-10T03:48:39;96189.34;;;13.63;100.00
68508;BME280;55510;49.560;19.090;2023-06-10T03:51:40;96186.38;;;13.60;100.00
68508;BME280;55510;49.560;19.090;2023-06-10T03:54:41;96187.19;;;13.66;100.00
68508;BME280;55510;49.560;19.090;2023-06-10T03:57:41;96186.94;;;13.72;100.00
68508;BME280;55510;49.560;19.090;2023-06-10T04:00:42;96195.22;;;13.71;100.00
68508;BME280;55510;49.560;19.090;2023-06-10T04:03:43;96194.94;;;13.77;100.00
68508;BME280;55510;49.560;19.090;2023-06-10T04:06:44;96195.75;;;13.78;100.00
68508;BME280;55510;49.560;19.090;2023-06-10T04:09:45;96195.75;;;13.78;100.00
68508;BME280;55510;49.560;19.090;2023-06-10T04:12:47;96201.38;;;13.76;100.00
68508;BME280;55510;49.560;19.090;2023-06-10T04:15:47;96197.34;;;13.79;100.00
68508;BME280;55510;49.560;19.090;2023-06-10T04:18:48;96196.00;;;13.82;100.00
68508;BME280;55510;49.560;19.090;2023-06-10T04:21:49;96197.06;;;13.86;100.00
68508;BME280;55510;49.560;19.090;2023-06-10T04:24:49;96196.25;;;13.85;100.00
68508;BME280;55510;49.560;19.090;2023-06-10T04:27:50;96200.28;;;13.88;100.00
68508;BME280;55510;49.560;19.090;2023-06-10T04:30:51;96191.72;;;13.91;100.00
68508;BME280;55510;49.560;19.090;2023-06-10T04:33:51;96202.69;;;13.95;100.00
68508;BME280;55510;49.560;19.090;2023-06-10T04:36:52;96200.81;;;13.95;100.00
68508;BME280;55510;49.560;19.090;2023-06-10T04:39:52;96203.47;;;14.00;100.00
68508;BME280;55510;49.560;19.090;2023-06-10T04:42:53;96191.16;;;14.04;100.00
68508;BME280;55510;49.560;19.090;2023-06-10T04:45:54;96197.31;;;14.10;100.00
68508;BME280;55510;49.560;19.090;2023-06-10T04:48:55;96194.06;;;14.18;100.00
68508;BME280;55510;49.560;19.090;2023-06-10T04:51:56;96193.28;;;14.23;100.00
68508;BME280;55510;49.560;19.090;2023-06-10T04:55:03;96189.75;;;14.28;100.00
68508;BME280;55510;49.560;19.090;2023-06-10T04:58:04;96188.97;;;14.32;100.00
68508;BME280;55510;49.560;19.090;2023-06-10T05:01:05;96189.22;;;14.41;100.00
68508;BME280;55510;49.560;19.090;2023-06-10T05:04:06;96194.00;;;14.49;100.00
68508;BME280;55510;49.560;19.090;2023-06-10T05:07:06;96204.66;;;14.60;100.00
68508;BME280;55510;49.560;19.090;2023-06-10T05:10:07;96204.38;;;14.67;100.00
68508;BME280;55510;49.560;19.090;2023-06-10T05:13:08;96195.28;;;14.73;100.00
68508;BME280;55510;49.560;19.090;2023-06-10T05:16:09;96192.53;;;14.83;100.00
68508;BME280;55510;49.560;19.090;2023-06-10T05:19:10;96200.81;;;14.92;100.00
68508;BME280;55510;49.560;19.090;2023-06-10T05:22:12;96201.31;;;14.99;100.00
68508;BME280;55510;49.560;19.090;2023-06-10T05:25:13;96207.97;;;15.02;100.00
68508;BME280;55510;49.560;19.090;2023-06-10T05:28:14;96205.28;;;15.02;100.00
68508;BME280;55510;49.560;19.090;2023-06-10T05:31:15;96202.13;;;14.94;100.00
68508;BME280;55510;49.560;19.090;2023-06-10T05:34:15;96208.53;;;15.04;100.00
68508;BME280;55510;49.560;19.090;2023-06-10T05:37:16;96213.84;;;15.09;100.00
68508;BME280;55510;49.560;19.090;2023-06-10T05:40:17;96207.91;;;15.17;100.00
68508;BME280;55510;49.560;19.090;2023-06-10T05:43:18;96208.41;;;15.25;100.00
68508;BME280;55510;49.560;19.090;2023-06-10T05:46:19;96214.22;;;15.37;100.00
68508;BME280;55510;49.560;19.090;2023-06-10T05:49:21;96212.53;;;15.51;100.00
68508;BME280;55510;49.560;19.090;2023-06-10T05:52:22;96214.59;;;15.60;100.00
68508;BME280;55510;49.560;19.090;2023-06-10T05:55:23;96225.00;;;15.66;100.00
68508;BME280;55510;49.560;19.090;2023-06-10T05:58:24;96215.06;;;15.67;100.00
68508;BME280;55510;49.560;19.090;2023-06-10T06:01:25;96217.72;;;15.72;100.00
68508;BME280;55510;49.560;19.090;2023-06-10T06:04:25;96217.44;;;15.74;100.00
68508;BME280;55510;49.560;19.090;2023-06-10T06:07:26;96225.19;;;15.75;100.00
68508;BME280;55510;49.560;19.090;2023-06-10T06:10:27;96223.56;;;15.79;100.00
68508;BME280;55510;49.560;19.090;2023-06-10T06:13:28;96224.03;;;15.87;100.00
68508;BME280;55510;49.560;19.090;2023-06-10T06:16:28;96229.06;;;15.99;100.00
68508;BME280;55510;49.560;19.090;2023-06-10T06:19:29;96223.00;;;16.17;100.00
68508;BME280;55510;49.560;19.090;2023-06-10T06:22:29;96221.63;;;16.44;100.00
68508;BME280;55510;49.560;19.090;2023-06-10T06:25:30;96222.91;;;16.76;100.00
68508;BME280;55510;49.560;19.090;2023-06-10T06:28:31;96223.19;;;16.94;100.00
68508;BME280;55510;49.560;19.090;2023-06-10T06:31:32;96233.16;;;16.93;100.00
68508;BME280;55510;49.560;19.090;2023-06-10T06:34:32;96240.03;;;17.05;100.00
68508;BME280;55510;49.560;19.090;2023-06-10T06:37:35;96239.31;;;17.18;100.00
68508;BME280;55510;49.560;19.090;2023-06-10T06:40:35;96245.06;;;17.12;100.00
68508;BME280;55510;49.560;19.090;2023-06-10T06:43:36;96243.81;;;17.04;100.00
68508;BME280;55510;49.560;19.090;2023-06-10T06:46:37;96239.75;;;17.06;100.00
68508;BME280;55510;49.560;19.090;2023-06-10T06:49:37;96248.97;;;17.00;100.00
68508;BME280;55510;49.560;19.090;2023-06-10T06:52:39;96254.50;;;17.09;100.00
68508;BME280;55510;49.560;19.090;2023-06-10T06:55:40;96252.72;;;16.99;100.00
68508;BME280;55510;49.560;19.090;2023-06-10T06:58:41;96255.06;;;17.06;100.00
68508;BME280;55510;49.560;19.090;2023-06-10T07:01:42;96256.16;;;17.05;100.00
68508;BME280;55510;49.560;19.090;2023-06-10T07:04:42;96257.06;;;17.19;100.00
68508;BME280;55510;49.560;19.090;2023-06-10T07:07:43;96259.13;;;17.28;100.00
68508;BME280;55510;49.560;19.090;2023-06-10T07:10:43;96254.59;;;17.42;100.00
68508;BME280;55510;49.560;19.090;2023-06-10T07:13:44;96259.97;;;17.42;100.00
68508;BME280;55510;49.560;19.090;2023-06-10T07:16:45;96253.50;;;17.43;100.00
68508;BME280;55510;49.560;19.090;2023-06-10T07:19:46;96256.63;;;17.31;100.00
68508;BME280;55510;49.560;19.090;2023-06-10T07:22:47;96261.06;;;17.41;100.00
68508;BME280;55510;49.560;19.090;2023-06-10T07:25:47;96255.97;;;17.39;100.00
68508;BME280;55510;49.560;19.090;2023-06-10T07:28:48;96262.38;;;17.44;100.00
68508;BME280;55510;49.560;19.090;2023-06-10T07:31:49;96258.59;;;17.45;100.00
68508;BME280;55510;49.560;19.090;2023-06-10T07:34:51;96261.59;;;17.43;100.00
68508;BME280;55510;49.560;19.090;2023-06-10T07:37:52;96261.16;;;17.55;100.00
68508;BME280;55510;49.560;19.090;2023-06-10T07:40:52;96270.44;;;17.63;100.00
68508;BME280;55510;49.560;19.090;2023-06-10T07:43:53;96274.28;;;17.76;100.00
68508;BME280;55510;49.560;19.090;2023-06-10T07:46:57;96268.63;;;17.77;100.00
68508;BME280;55510;49.560;19.090;2023-06-10T07:49:58;96275.94;;;17.91;100.00
68508;BME280;55510;49.560;19.090;2023-06-10T07:52:59;96266.19;;;17.95;100.00
68508;BME280;55510;49.560;19.090;2023-06-10T07:56:03;96270.84;;;18.08;100.00
68508;BME280;55510;49.560;19.090;2023-06-10T07:59:03;96271.50;;;18.00;100.00
68508;BME280;55510;49.560;19.090;2023-06-10T08:02:05;96273.47;;;18.14;100.00
68508;BME280;55510;49.560;19.090;2023-06-10T08:05:06;96271.00;;;18.31;100.00
68508;BME280;55510;49.560;19.090;2023-06-10T08:08:06;96274.72;;;18.35;100.00
68508;BME280;55510;49.560;19.090;2023-06-10T08:11:07;96273.72;;;18.45;100.00
68508;BME280;55510;49.560;19.090;2023-06-10T08:14:08;96280.72;;;18.46;100.00
68508;BME280;55510;49.560;19.090;2023-06-10T08:17:10;96287.50;;;18.44;100.00
68508;BME280;55510;49.560;19.090;2023-06-10T08:20:11;96282.50;;;18.37;100.00
68508;BME280;55510;49.560;19.090;2023-06-10T08:23:12;96269.09;;;18.32;100.00
68508;BME280;55510;49.560;19.090;2023-06-10T08:26:12;96287.69;;;18.33;100.00
68508;BME280;55510;49.560;19.090;2023-06-10T08:29:13;96278.09;;;18.27;100.00
68508;BME280;55510;49.560;19.090;2023-06-10T08:32:14;96275.81;;;18.34;100.00
68508;BME280;55510;49.560;19.090;2023-06-10T08:35:15;96285.97;;;18.37;100.00
68508;BME280;55510;49.560;19.090;2023-06-10T08:38:16;96286.44;;;18.25;100.00
68508;BME280;55510;49.560;19.090;2023-06-10T08:41:17;96294.94;;;18.19;100.00
68508;BME280;55510;49.560;19.090;2023-06-10T08:44:27;96289.03;;;18.17;100.00
68508;BME280;55510;49.560;19.090;2023-06-10T08:47:29;96293.91;;;18.15;100.00
68508;BME280;55510;49.560;19.090;2023-06-10T08:50:36;96298.41;;;18.19;100.00
68508;BME280;55510;49.560;19.090;2023-06-10T08:53:41;96301.19;;;18.14;100.00
68508;BME280;55510;49.560;19.090;2023-06-10T08:56:43;96292.88;;;18.10;100.00
68508;BME280;55510;49.560;19.090;2023-06-10T08:59:45;96287.00;;;18.08;100.00
68508;BME280;55510;49.560;19.090;2023-06-10T09:02:47;96286.81;;;18.05;100.00
68508;BME280;55510;49.560;19.090;2023-06-10T09:05:48;96286.81;;;18.05;100.00
68508;BME280;55510;49.560;19.090;2023-06-10T09:08:49;96287.22;;;17.93;100.00
68508;BME280;55510;49.560;19.090;2023-06-10T09:11:50;96297.34;;;17.82;100.00
68508;BME280;55510;49.560;19.090;2023-06-10T09:14:51;96290.16;;;17.77;100.00
68508;BME280;55510;49.560;19.090;2023-06-10T09:17:52;96290.75;;;17.74;100.00
68508;BME280;55510;49.560;19.090;2023-06-10T09:20:53;96295.22;;;17.79;100.00
68508;BME280;55510;49.560;19.090;2023-06-10T09:23:53;96297.91;;;17.79;100.00
68508;BME280;55510;49.560;19.090;2023-06-10T09:27:05;96302.63;;;17.87;100.00
68508;BME280;55510;49.560;19.090;2023-06-10T09:30:07;96299.66;;;17.89;100.00
68508;BME280;55510;49.560;19.090;2023-06-10T09:33:12;96302.94;;;17.86;100.00
68508;BME280;55510;49.560;19.090;2023-06-10T09:36:22;96300.53;;;17.84;100.00
68508;BME280;55510;49.560;19.090;2023-06-10T09:39:23;96305.06;;;17.89;100.00
68508;BME280;55510;49.560;19.090;2023-06-10T09:42:23;96301.94;;;18.01;100.00
68508;BME280;55510;49.560;19.090;2023-06-10T09:45:29;96296.16;;;18.07;100.00
68508;BME280;55510;49.560;19.090;2023-06-10T09:48:35;96296.16;;;18.07;100.00
68508;BME280;55510;49.560;19.090;2023-06-10T09:51:36;96301.56;;;18.07;100.00
68508;BME280;55510;49.560;19.090;2023-06-10T09:54:37;96306.28;;;17.96;100.00
68508;BME280;55510;49.560;19.090;2023-06-10T09:57:37;96315.59;;;17.85;100.00
68508;BME280;55510;49.560;19.090;2023-06-10T10:00:39;96313.78;;;17.80;100.00
68508;BME280;55510;49.560;19.090;2023-06-10T10:03:50;96323.38;;;17.67;100.00
68508;BME280;55510;49.560;19.090;2023-06-10T10:06:51;96319.69;;;17.63;100.00
68508;BME280;55510;49.560;19.090;2023-06-10T10:09:51;96322.06;;;17.65;100.00
68508;BME280;55510;49.560;19.090;2023-06-10T10:12:56;96307.69;;;17.56;100.00
68508;BME280;55510;49.560;19.090;2023-06-10T10:16:00;96308.09;;;17.63;100.00
68508;BME280;55510;49.560;19.090;2023-06-10T10:19:08;96303.97;;;17.71;100.00
68508;BME280;55510;49.560;19.090;2023-06-10T10:25:38;96302.19;;;17.99;100.00
68508;BME280;55510;49.560;19.090;2023-06-10T10:29:33;96314.06;;;18.17;100.00
68508;BME280;55510;49.560;19.090;2023-06-10T10:32:30;96294.28;;;18.41;100.00
68508;BME280;55510;49.560;19.090;2023-06-10T10:35:33;96305.69;;;18.66;100.00
68508;BME280;55510;49.560;19.090;2023-06-10T10:38:35;96309.19;;;18.94;100.00
68508;BME280;55510;49.560;19.090;2023-06-10T10:41:36;96298.22;;;19.19;100.00
68508;BME280;55510;49.560;19.090;2023-06-10T10:44:38;96297.47;;;19.55;100.00
68508;BME280;55510;49.560;19.090;2023-06-10T10:47:43;96300.38;;;19.95;99.69
68508;BME280;55510;49.560;19.090;2023-06-10T10:50:56;96294.53;;;20.25;98.41
68508;BME280;55510;49.560;19.090;2023-06-10T10:54:13;96303.19;;;20.36;93.88
68508;BME280;55510;49.560;19.090;2023-06-10T10:57:20;96305.81;;;20.27;90.03
68508;BME280;55510;49.560;19.090;2023-06-10T11:00:31;96291.59;;;20.35;90.68
68508;BME280;55510;49.560;19.090;2023-06-10T11:03:42;96287.25;;;20.57;91.26
68508;BME280;55510;49.560;19.090;2023-06-10T11:06:52;96281.91;;;20.75;90.66
68508;BME280;55510;49.560;19.090;2023-06-10T11:13:00;96282.44;;;20.85;90.24
68508;BME280;55510;49.560;19.090;2023-06-10T11:16:04;96270.13;;;20.70;87.45
68508;BME280;55510;49.560;19.090;2023-06-10T11:19:04;96270.09;;;20.93;86.17
68508;BME280;55510;49.560;19.090;2023-06-10T11:22:06;96272.66;;;21.16;86.75
68508;BME280;55510;49.560;19.090;2023-06-10T11:25:13;96280.78;;;21.16;85.46
68508;BME280;55510;49.560;19.090;2023-06-10T11:28:19;96268.44;;;20.83;81.87
68508;BME280;55510;49.560;19.090;2023-06-10T11:34:24;96272.81;;;20.70;85.74
68508;BME280;55510;49.560;19.090;2023-06-10T11:37:27;96270.22;;;20.88;84.58
68508;BME280;55510;49.560;19.090;2023-06-10T11:40:28;96271.34;;;20.96;83.22
68508;BME280;55510;49.560;19.090;2023-06-10T11:43:30;96264.03;;;20.96;82.83
68508;BME280;55510;49.560;19.090;2023-06-10T11:46:31;96266.44;;;21.07;82.61
68508;BME280;55510;49.560;19.090;2023-06-10T11:49:32;96262.22;;;21.23;84.24
68508;BME280;55510;49.560;19.090;2023-06-10T11:52:33;96257.47;;;21.47;83.21
68508;BME280;55510;49.560;19.090;2023-06-10T11:55:45;96244.91;;;21.77;78.64
68508;BME280;55510;49.560;19.090;2023-06-10T11:58:53;96249.28;;;22.26;78.59
68508;BME280;55510;49.560;19.090;2023-06-10T12:01:54;96241.19;;;22.65;77.52
68508;BME280;55510;49.560;19.090;2023-06-10T12:05:09;96245.84;;;22.94;75.38
68508;BME280;55510;49.560;19.090;2023-06-10T12:08:11;96245.03;;;23.02;76.57
68508;BME280;55510;49.560;19.090;2023-06-10T12:11:12;96246.97;;;23.23;73.00
68508;BME280;55510;49.560;19.090;2023-06-10T12:14:13;96257.72;;;23.41;71.87
68508;BME280;55510;49.560;19.090;2023-06-10T12:17:14;96264.63;;;23.59;72.47
68508;BME280;55510;49.560;19.090;2023-06-10T12:20:29;96279.06;;;22.91;71.50
68508;BME280;55510;49.560;19.090;2023-06-10T12:23:30;96288.00;;;22.35;73.84
68508;BME280;55510;49.560;19.090;2023-06-10T12:26:35;96289.47;;;21.62;77.34
68508;BME280;55510;49.560;19.090;2023-06-10T12:29:36;96291.53;;;20.58;80.78
68508;BME280;55510;49.560;19.090;2023-06-10T12:32:41;96282.78;;;19.98;84.33
68508;BME280;55510;49.560;19.090;2023-06-10T12:35:52;96292.16;;;19.27;89.15
68508;BME280;55510;49.560;19.090;2023-06-10T12:39:02;96295.13;;;18.69;91.86
68508;BME280;55510;49.560;19.090;2023-06-10T12:42:03;96312.66;;;18.39;93.84
68508;BME280;55510;49.560;19.090;2023-06-10T12:45:05;96312.13;;;18.04;97.29
68508;BME280;55510;49.560;19.090;2023-06-10T12:48:09;96321.78;;;17.86;99.65
68508;BME280;55510;49.560;19.090;2023-06-10T12:51:10;96317.84;;;17.59;100.00
68508;BME280;55510;49.560;19.090;2023-06-10T12:54:11;96321.19;;;17.50;100.00
68508;BME280;55510;49.560;19.090;2023-06-10T12:57:13;96321.78;;;17.47;100.00
68508;BME280;55510;49.560;19.090;2023-06-10T13:00:14;96318.16;;;17.57;100.00
68508;BME280;55510;49.560;19.090;2023-06-10T13:03:15;96312.13;;;17.65;100.00
68508;BME280;55510;49.560;19.090;2023-06-10T13:06:15;96309.50;;;17.79;100.00
68508;BME280;55510;49.560;19.090;2023-06-10T13:09:16;96306.16;;;17.88;100.00
68508;BME280;55510;49.560;19.090;2023-06-10T13:12:17;96307.53;;;18.04;100.00
68508;BME280;55510;49.560;19.090;2023-06-10T13:15:18;96309.56;;;18.13;100.00
68508;BME280;55510;49.560;19.090;2023-06-10T13:18:18;96310.41;;;18.27;100.00
68508;BME280;55510;49.560;19.090;2023-06-10T13:21:20;96315.13;;;18.35;100.00
68508;BME280;55510;49.560;19.090;2023-06-10T13:24:21;96304.47;;;18.44;100.00
68508;BME280;55510;49.560;19.090;2023-06-10T13:27:22;96320.22;;;18.37;100.00
68508;BME280;55510;49.560;19.090;2023-06-10T13:30:22;96313.59;;;18.29;100.00
68508;BME280;55510;49.560;19.090;2023-06-10T13:33:23;96315.13;;;18.35;100.00
68508;BME280;55510;49.560;19.090;2023-06-10T13:36:24;96318.41;;;18.32;100.00
68508;BME280;55510;49.560;19.090;2023-06-10T13:39:25;96305.47;;;18.48;100.00
68508;BME280;55510;49.560;19.090;2023-06-10T13:42:25;96308.28;;;18.57;100.00
68508;BME280;55510;49.560;19.090;2023-06-10T13:45:29;96310.09;;;18.76;100.00
68508;BME280;55510;49.560;19.090;2023-06-10T13:48:30;96309.28;;;18.75;100.00
68508;BME280;55510;49.560;19.090;2023-06-10T13:51:31;96313.09;;;18.88;100.00
68508;BME280;55510;49.560;19.090;2023-06-10T13:54:32;96308.34;;;18.99;100.00
68508;BME280;55510;49.560;19.090;2023-06-10T13:57:33;96314.72;;;19.03;100.00
68508;BME280;55510;49.560;19.090;2023-06-10T14:00:33;96308.72;;;19.06;98.40
68508;BME280;55510;49.560;19.090;2023-06-10T14:03:34;96318.03;;;19.00;99.96
68508;BME280;55510;49.560;19.090;2023-06-10T14:06:35;96314.03;;;18.97;99.77
68508;BME280;55510;49.560;19.090;2023-06-10T14:09:36;96319.28;;;18.75;98.20
68508;BME280;55510;49.560;19.090;2023-06-10T14:12:36;96318.03;;;18.53;97.93
68508;BME280;55510;49.560;19.090;2023-06-10T14:15:37;96324.63;;;18.47;97.04
68508;BME280;55510;49.560;19.090;2023-06-10T14:18:38;96322.41;;;18.35;96.34
68508;BME280;55510;49.560;19.090;2023-06-10T14:21:39;96317.81;;;18.35;96.71
68508;BME280;55510;49.560;19.090;2023-06-10T14:24:40;96318.63;;;18.50;97.97
68508;BME280;55510;49.560;19.090;2023-06-10T14:27:41;96308.59;;;18.69;98.83
68508;BME280;55510;49.560;19.090;2023-06-10T14:30:42;96307.19;;;18.86;97.55
68508;BME280;55510;49.560;19.090;2023-06-10T14:33:43;96311.31;;;18.97;96.96
68508;BME280;55510;49.560;19.090;2023-06-10T14:36:44;96308.44;;;19.08;96.71
68508;BME280;55510;49.560;19.090;2023-06-10T14:39:44;96305.25;;;19.06;94.01
68508;BME280;55510;49.560;19.090;2023-06-10T14:42:45;96297.41;;;19.46;95.16
68508;BME280;55510;49.560;19.090;2023-06-10T14:45:46;96302.38;;;19.90;93.33
68508;BME280;55510;49.560;19.090;2023-06-10T14:48:46;96302.63;;;20.48;91.92
68508;BME280;55510;49.560;19.090;2023-06-10T14:51:47;96300.63;;;20.94;87.79
68508;BME280;55510;49.560;19.090;2023-06-10T14:54:50;96300.56;;;21.25;84.68
68508;BME280;55510;49.560;19.090;2023-06-10T14:57:50;96302.19;;;21.44;81.11
68508;BME280;55510;49.560;19.090;2023-06-10T15:00:51;96291.75;;;21.69;80.01
68508;BME280;55510;49.560;19.090;2023-06-10T15:03:52;96289.19;;;21.90;76.96
68508;BME280;55510;49.560;19.090;2023-06-10T15:06:53;96287.09;;;22.13;77.81
68508;BME280;55510;49.560;19.090;2023-06-10T15:09:53;96304.78;;;22.11;75.80
68508;BME280;55510;49.560;19.090;2023-06-10T15:12:54;96303.22;;;21.83;76.92
68508;BME280;55510;49.560;19.090;2023-06-10T15:15:56;96307.16;;;21.51;75.68
68508;BME280;55510;49.560;19.090;2023-06-10T15:18:56;96309.25;;;21.80;76.29
68508;BME280;55510;49.560;19.090;2023-06-10T15:21:58;96310.50;;;22.27;75.65
68508;BME280;55510;49.560;19.090;2023-06-10T15:24:58;96314.25;;;22.70;72.86
68508;BME280;55510;49.560;19.090;2023-06-10T15:27:59;96316.84;;;23.65;70.16
68508;BME280;55510;49.560;19.090;2023-06-10T15:31:03;96314.69;;;24.01;65.15
68508;BME280;55510;49.560;19.090;2023-06-10T15:34:04;96307.34;;;24.35;64.05
68508;BME280;55510;49.560;19.090;2023-06-10T15:37:05;96317.16;;;24.73;62.96
68508;BME280;55510;49.560;19.090;2023-06-10T15:40:06;96312.81;;;24.47;61.72
68508;BME280;55510;49.560;19.090;2023-06-10T15:43:07;96314.47;;;24.06;62.13
68508;BME280;55510;49.560;19.090;2023-06-10T15:46:07;96319.22;;;23.67;62.73
68508;BME280;55510;49.560;19.090;2023-06-10T15:49:08;96324.94;;;24.16;63.31
68508;BME280;55510;49.560;19.090;2023-06-10T15:52:09;96320.66;;;23.85;64.05
68508;BME280;55510;49.560;19.090;2023-06-10T15:55:10;96325.25;;;23.51;65.65